createdAt,value
2022-09-12T00:01:52.665Z,14.30
2022-09-12T00:04:19.376Z,14.30
2022-09-12T00:06:46.094Z,14.30
2022-09-12T00:09:14.535Z,14.20
2022-09-12T00:11:44.036Z,14.30
2022-09-12T00:14:13.777Z,14.30
2022-09-12T00:16:41.202Z,14.30
2022-09-12T00:19:09.180Z,14.30
2022-09-12T00:21:38.532Z,14.30
2022-09-12T00:24:06.622Z,14.30
2022-09-12T00:26:34.094Z,14.30
2022-09-12T00:29:00.903Z,14.30
2022-09-12T00:31:28.749Z,14.30
2022-09-12T00:33:58.770Z,14.30
2022-09-12T00:36:26.453Z,14.20
2022-09-12T00:38:54.511Z,14.20
2022-09-12T00:41:24.103Z,14.20
2022-09-12T00:43:53.486Z,14.20
2022-09-12T00:46:40.469Z,14.20
2022-09-12T00:49:26.110Z,14.10
2022-09-12T00:51:57.564Z,14.10
2022-09-12T00:54:30.246Z,14.00
2022-09-12T00:57:03.737Z,14.00
2022-09-12T00:59:41.373Z,13.90
2022-09-12T01:02:09.375Z,14.00
2022-09-12T01:04:39.028Z,13.90
2022-09-12T01:07:07.496Z,13.90
2022-09-12T01:09:35.800Z,13.90
2022-09-12T01:12:04.068Z,13.90
2022-09-12T01:14:32.500Z,13.80
2022-09-12T01:16:59.407Z,13.80
2022-09-12T01:19:45.376Z,13.80
2022-09-12T01:22:25.121Z,13.80
2022-09-12T01:25:21.383Z,13.80
2022-09-12T01:28:16.043Z,13.70
2022-09-12T01:31:06.739Z,13.70
2022-09-12T01:33:42.470Z,13.70
2022-09-12T01:36:49.519Z,13.70
2022-09-12T01:39:49.264Z,13.70
2022-09-12T01:42:30.233Z,13.70
2022-09-12T01:45:15.280Z,13.60
2022-09-12T01:47:58.982Z,13.60
2022-09-12T01:50:30.913Z,13.60
2022-09-12T01:53:18.814Z,13.60
2022-09-12T01:56:14.442Z,13.60
2022-09-12T01:59:05.824Z,13.60
2022-09-12T02:01:36.328Z,13.60
2022-09-12T02:04:18.262Z,13.60
2022-09-12T02:07:09.238Z,13.50
2022-09-12T02:09:38.019Z,13.50
2022-09-12T02:12:08.907Z,13.50
2022-09-12T02:14:40.985Z,13.50
2022-09-12T02:17:39.182Z,13.50
2022-09-12T02:20:37.432Z,13.50
2022-09-12T02:23:09.950Z,13.50
2022-09-12T02:25:40.259Z,13.50
2022-09-12T02:28:16.878Z,13.50
2022-09-12T02:30:59.592Z,13.50
2022-09-12T02:33:45.221Z,13.50
2022-09-12T02:36:44.679Z,13.40
2022-09-12T02:39:11.427Z,13.50
2022-09-12T02:41:38.354Z,13.40
2022-09-12T02:44:06.065Z,13.40
2022-09-12T02:46:46.805Z,13.40
2022-09-12T02:49:14.465Z,13.40
2022-09-12T02:51:41.841Z,13.40
2022-09-12T02:54:09.962Z,13.40
2022-09-12T02:56:41.634Z,13.40
2022-09-12T02:59:10.961Z,13.30
2022-09-12T03:02:00.134Z,13.20
2022-09-12T03:04:45.523Z,13.20
2022-09-12T03:07:27.222Z,13.20
2022-09-12T03:10:02.992Z,13.20
2022-09-12T03:12:46.167Z,13.20
2022-09-12T03:15:35.739Z,13.20
2022-09-12T03:18:14.687Z,13.20
2022-09-12T03:21:09.624Z,13.20
2022-09-12T03:23:47.800Z,13.20
2022-09-12T03:26:47.174Z,13.20
2022-09-12T03:29:15.669Z,13.10
2022-09-12T03:31:54.137Z,13.00
2022-09-12T03:34:22.646Z,13.10
2022-09-12T03:36:50.197Z,13.20
2022-09-12T03:39:17.363Z,13.10
2022-09-12T03:41:44.274Z,13.10
2022-09-12T03:44:10.971Z,13.10
2022-09-12T03:46:37.726Z,13.00
2022-09-12T03:49:04.762Z,13.00
2022-09-12T03:51:31.487Z,13.00
2022-09-12T03:53:58.285Z,13.00
2022-09-12T03:56:24.967Z,13.00
2022-09-12T03:58:51.688Z,13.00
2022-09-12T04:01:20.065Z,12.90
2022-09-12T04:03:49.349Z,13.00
2022-09-12T04:06:18.635Z,13.00
2022-09-12T04:08:51.991Z,12.90
2022-09-12T04:11:20.589Z,13.00
2022-09-12T04:13:48.247Z,13.00
2022-09-12T04:16:17.344Z,13.00
2022-09-12T04:18:45.419Z,13.10
2022-09-12T04:21:17.968Z,13.00
2022-09-12T04:23:45.354Z,13.10
2022-09-12T04:26:13.688Z,13.00
2022-09-12T04:28:41.002Z,13.00
2022-09-12T04:31:18.415Z,13.10
2022-09-12T04:33:45.602Z,13.00
2022-09-12T04:36:16.466Z,13.10
2022-09-12T04:38:44.418Z,13.10
2022-09-12T04:41:15.421Z,13.10
2022-09-12T04:43:43.585Z,13.10
2022-09-12T04:46:12.171Z,13.10
2022-09-12T04:48:39.195Z,13.00
2022-09-12T04:51:17.534Z,13.00
2022-09-12T04:53:49.384Z,13.00
2022-09-12T04:56:16.425Z,13.00
2022-09-12T04:58:44.818Z,13.00
2022-09-12T05:01:14.453Z,13.00
2022-09-12T05:03:43.521Z,13.10
2022-09-12T05:06:13.438Z,13.00
2022-09-12T05:08:40.173Z,13.10
2022-09-12T05:11:10.512Z,13.10
2022-09-12T05:13:37.941Z,13.10
2022-09-12T05:16:06.024Z,13.10
2022-09-12T05:18:35.362Z,13.10
2022-09-12T05:21:04.898Z,13.10
2022-09-12T05:23:31.785Z,13.10
2022-09-12T05:26:00.073Z,13.30
2022-09-12T05:28:34.615Z,13.30
2022-09-12T05:31:13.318Z,13.30
2022-09-12T05:33:41.871Z,13.30
2022-09-12T05:36:13.695Z,13.30
2022-09-12T05:38:40.497Z,13.40
2022-09-12T05:41:17.500Z,13.50
2022-09-12T05:43:46.584Z,13.50
2022-09-12T05:46:16.555Z,13.50
2022-09-12T05:48:45.038Z,13.50
2022-09-12T05:51:20.357Z,13.50
2022-09-12T05:53:50.052Z,13.60
2022-09-12T05:56:18.626Z,13.60
2022-09-12T05:58:48.358Z,13.60
2022-09-12T06:01:17.972Z,13.70
2022-09-12T06:03:47.689Z,13.70
2022-09-12T06:06:16.003Z,13.70
2022-09-12T06:08:48.260Z,13.70
2022-09-12T06:11:17.688Z,13.80
2022-09-12T06:13:45.082Z,13.80
2022-09-12T06:16:18.076Z,13.90
2022-09-12T06:18:56.325Z,13.90
2022-09-12T06:21:24.300Z,14.00
2022-09-12T06:23:51.168Z,14.10
2022-09-12T06:26:21.505Z,14.20
2022-09-12T06:28:48.377Z,14.20
2022-09-12T06:31:18.450Z,14.30
2022-09-12T06:33:49.150Z,14.40
2022-09-12T06:36:41.584Z,14.40
2022-09-12T06:39:15.052Z,14.50
2022-09-12T06:41:44.277Z,14.60
2022-09-12T06:44:18.187Z,14.70
2022-09-12T06:46:45.654Z,14.70
2022-09-12T06:49:12.528Z,14.80
2022-09-12T06:51:41.759Z,14.80
2022-09-12T06:54:09.462Z,14.90
2022-09-12T06:56:36.168Z,15.00
2022-09-12T06:59:03.341Z,15.00
2022-09-12T07:01:31.667Z,15.00
2022-09-12T07:04:00.302Z,15.10
2022-09-12T07:06:32.298Z,15.20
2022-09-12T07:09:01.035Z,15.20
2022-09-12T07:11:33.942Z,15.30
2022-09-12T07:14:03.656Z,15.40
2022-09-12T07:16:30.675Z,15.50
2022-09-12T07:19:02.665Z,15.50
2022-09-12T07:21:30.309Z,15.60
2022-09-12T07:23:58.121Z,15.70
2022-09-12T07:26:29.286Z,15.80
2022-09-12T07:29:12.768Z,15.80
2022-09-12T07:31:44.495Z,15.90
2022-09-12T07:34:11.651Z,16.00
2022-09-12T07:36:39.189Z,16.00
2022-09-12T07:39:06.555Z,16.10
2022-09-12T07:41:33.984Z,16.20
2022-09-12T07:44:02.371Z,16.30
2022-09-12T07:46:30.612Z,16.30
2022-09-12T07:48:58.965Z,16.40
2022-09-12T07:51:27.268Z,16.40
2022-09-12T07:53:54.254Z,16.40
2022-09-12T07:56:22.573Z,16.50
2022-09-12T07:58:50.963Z,16.50
2022-09-12T08:01:20.177Z,16.50
2022-09-12T08:03:49.169Z,16.60
2022-09-12T08:06:23.972Z,16.60
2022-09-12T08:08:52.031Z,16.70
2022-09-12T08:11:23.205Z,16.80
2022-09-12T08:13:55.253Z,16.80
2022-09-12T08:16:24.973Z,16.90
2022-09-12T08:18:52.137Z,16.90
2022-09-12T08:21:22.631Z,17.00
2022-09-12T08:24:01.990Z,17.00
2022-09-12T08:26:29.544Z,17.10
2022-09-12T08:28:56.591Z,17.10
2022-09-12T08:31:25.085Z,17.20
2022-09-12T08:33:56.180Z,17.20
2022-09-12T08:36:25.157Z,17.30
2022-09-12T08:38:59.207Z,17.40
2022-09-12T08:41:42.368Z,17.50
2022-09-12T08:44:35.026Z,17.50
2022-09-12T08:47:10.685Z,17.60
2022-09-12T08:49:58.498Z,17.70
2022-09-12T08:52:36.041Z,17.70
2022-09-12T08:55:04.525Z,17.80
2022-09-12T08:57:31.536Z,17.90
2022-09-12T08:59:58.232Z,18.00
2022-09-12T09:02:25.072Z,18.10
2022-09-12T09:05:12.933Z,18.10
2022-09-12T09:07:45.564Z,18.30
2022-09-12T09:10:21.108Z,18.40
2022-09-12T09:13:09.842Z,18.40
2022-09-12T09:15:55.141Z,18.60
2022-09-12T09:18:28.668Z,18.60
2022-09-12T09:20:57.289Z,18.60
2022-09-12T09:23:26.866Z,18.70
2022-09-12T09:26:10.509Z,18.80
2022-09-12T09:28:48.000Z,18.90
2022-09-12T09:31:19.882Z,18.90
2022-09-12T09:33:49.284Z,19.10
2022-09-12T09:36:19.016Z,19.10
2022-09-12T09:38:54.165Z,19.20
2022-09-12T09:41:45.222Z,19.20
2022-09-12T09:44:12.037Z,19.40
2022-09-12T09:46:38.947Z,19.40
2022-09-12T09:49:07.222Z,19.60
2022-09-12T09:51:40.352Z,19.70
2022-09-12T09:54:26.260Z,19.70
2022-09-12T09:56:53.046Z,19.70
2022-09-12T09:59:30.058Z,19.80
2022-09-12T10:02:03.871Z,19.90
2022-09-12T10:04:41.424Z,20.10
2022-09-12T10:07:19.698Z,20.10
2022-09-12T10:10:18.554Z,20.30
2022-09-12T10:12:45.764Z,20.40
2022-09-12T10:15:22.957Z,20.50
2022-09-12T10:17:50.991Z,20.70
2022-09-12T10:20:43.954Z,20.80
2022-09-12T10:23:19.905Z,20.90
2022-09-12T10:25:56.451Z,20.90
2022-09-12T10:28:37.279Z,20.90
2022-09-12T10:31:05.368Z,21.00
2022-09-12T10:33:40.836Z,21.20
2022-09-12T10:36:07.832Z,21.30
2022-09-12T10:38:34.528Z,21.40
2022-09-12T10:41:12.292Z,21.40
2022-09-12T10:43:41.580Z,21.40
2022-09-12T10:46:17.739Z,21.50
2022-09-12T10:48:47.119Z,21.70
2022-09-12T10:51:34.161Z,21.90
2022-09-12T10:54:07.956Z,21.90
2022-09-12T10:57:00.324Z,22.10
2022-09-12T11:00:05.712Z,22.20
2022-09-12T11:03:01.386Z,22.20
2022-09-12T11:05:51.469Z,22.10
2022-09-12T11:08:46.026Z,22.00
2022-09-12T11:11:37.653Z,22.10
2022-09-12T11:14:22.155Z,22.30
2022-09-12T11:17:13.787Z,22.30
2022-09-12T11:20:18.794Z,22.40
2022-09-12T11:23:04.299Z,22.60
2022-09-12T11:25:50.778Z,22.60
2022-09-12T11:28:32.894Z,22.70
2022-09-12T11:31:23.826Z,22.70
2022-09-12T11:33:56.103Z,22.90
2022-09-12T11:36:31.206Z,23.00
2022-09-12T11:39:21.688Z,23.20
2022-09-12T11:41:55.489Z,23.30
2022-09-12T11:44:43.072Z,23.40
2022-09-12T11:47:13.458Z,23.50
2022-09-12T11:49:53.701Z,23.50
2022-09-12T11:52:23.802Z,23.70
2022-09-12T11:55:03.841Z,23.60
2022-09-12T11:57:36.732Z,23.60
2022-09-12T12:00:21.058Z,23.60
2022-09-12T12:03:06.582Z,23.80
2022-09-12T12:05:43.272Z,23.90
2022-09-12T12:08:12.276Z,23.80
2022-09-12T12:10:44.263Z,24.00
2022-09-12T12:13:23.575Z,24.10
2022-09-12T12:15:55.121Z,24.30
2022-09-12T12:18:27.458Z,24.30
2022-09-12T12:20:55.831Z,24.30
2022-09-12T12:23:32.171Z,24.20
2022-09-12T12:26:04.496Z,24.00
2022-09-12T12:28:49.538Z,24.00
2022-09-12T12:31:17.155Z,24.20
2022-09-12T12:33:43.959Z,24.50
2022-09-12T12:36:30.345Z,24.70
2022-09-12T12:38:57.371Z,24.70
2022-09-12T12:41:26.892Z,24.80
2022-09-12T12:43:56.267Z,25.00
2022-09-12T12:46:25.830Z,25.20
2022-09-12T12:48:58.937Z,25.00
2022-09-12T12:51:43.466Z,24.90
2022-09-12T12:54:49.457Z,25.00
2022-09-12T12:57:19.273Z,25.20
2022-09-12T12:59:50.480Z,25.10
2022-09-12T13:02:39.772Z,25.10
2022-09-12T13:05:20.724Z,25.20
2022-09-12T13:07:58.072Z,25.50
2022-09-12T13:10:29.863Z,25.70
2022-09-12T13:13:01.874Z,25.90
2022-09-12T13:15:37.720Z,26.20
2022-09-12T13:18:10.432Z,26.30
2022-09-12T13:20:57.131Z,26.40
2022-09-12T13:23:29.649Z,26.30
2022-09-12T13:25:58.746Z,26.20
2022-09-12T13:28:27.266Z,26.40
2022-09-12T13:31:32.242Z,26.50
2022-09-12T13:34:03.858Z,26.60
2022-09-12T13:36:46.649Z,26.70
2022-09-12T13:39:19.856Z,26.80
2022-09-12T13:41:53.239Z,27.00
2022-09-12T13:44:23.016Z,27.10
2022-09-12T13:46:51.324Z,27.10
2022-09-12T13:49:38.389Z,27.20
2022-09-12T13:52:21.938Z,27.10
2022-09-12T13:54:51.916Z,27.20
2022-09-12T13:57:55.804Z,27.10
2022-09-12T14:00:22.490Z,27.20
2022-09-12T14:02:49.446Z,27.20
2022-09-12T14:05:25.912Z,27.30
2022-09-12T14:08:00.253Z,27.20
2022-09-12T14:10:37.096Z,27.30
2022-09-12T14:13:20.404Z,27.10
2022-09-12T14:15:53.262Z,27.30
2022-09-12T14:18:26.617Z,27.10
2022-09-12T14:20:57.372Z,26.90
2022-09-12T14:23:33.030Z,27.10
2022-09-12T14:26:06.550Z,27.10
2022-09-12T14:28:34.473Z,26.80
2022-09-12T14:31:29.075Z,26.70
2022-09-12T14:34:08.990Z,26.60
2022-09-12T14:36:42.066Z,26.10
2022-09-12T14:39:26.854Z,26.30
2022-09-12T14:42:06.812Z,26.50
2022-09-12T14:44:35.084Z,26.50
2022-09-12T14:47:19.183Z,26.50
2022-09-12T14:49:46.087Z,26.80
2022-09-12T14:52:29.303Z,26.80
2022-09-12T14:55:21.134Z,27.00
2022-09-12T14:57:49.989Z,27.10
2022-09-12T15:00:20.904Z,26.90
2022-09-12T15:02:49.811Z,26.80
2022-09-12T15:05:26.457Z,26.80
2022-09-12T15:08:02.598Z,26.60
2022-09-12T15:10:36.206Z,26.60
2022-09-12T15:13:08.326Z,26.60
2022-09-12T15:15:36.986Z,26.40
2022-09-12T15:18:06.783Z,26.10
2022-09-12T15:20:38.614Z,26.10
2022-09-12T15:23:10.842Z,26.10
2022-09-12T15:25:45.292Z,26.00
2022-09-12T15:28:20.914Z,26.10
2022-09-12T15:30:50.496Z,26.00
2022-09-12T15:33:22.916Z,26.10
2022-09-12T15:35:50.421Z,26.00
2022-09-12T15:38:17.702Z,26.00
2022-09-12T15:40:45.828Z,26.10
2022-09-12T15:43:14.034Z,26.10
2022-09-12T15:45:43.530Z,26.20
2022-09-12T15:48:10.352Z,26.40
2022-09-12T15:50:37.140Z,26.40
2022-09-12T15:53:03.856Z,26.30
2022-09-12T15:55:34.628Z,26.40
2022-09-12T15:58:06.312Z,26.30
2022-09-12T16:00:33.843Z,26.50
2022-09-12T16:03:01.039Z,26.60
2022-09-12T16:05:28.004Z,26.70
2022-09-12T16:07:55.538Z,26.60
2022-09-12T16:10:26.387Z,26.60
2022-09-12T16:12:53.441Z,26.60
2022-09-12T16:15:22.413Z,26.30
2022-09-12T16:17:49.638Z,25.80
2022-09-12T16:20:16.868Z,25.70
2022-09-12T16:22:43.605Z,25.70
2022-09-12T16:25:10.497Z,25.50
2022-09-12T16:27:38.093Z,25.50
2022-09-12T16:30:07.324Z,25.20
2022-09-12T16:32:34.158Z,25.20
2022-09-12T16:35:01.960Z,25.00
2022-09-12T16:37:28.742Z,24.90
2022-09-12T16:39:55.854Z,24.80
2022-09-12T16:42:22.962Z,24.70
2022-09-12T16:44:49.678Z,24.50
2022-09-12T16:47:16.495Z,24.30
2022-09-12T16:49:43.234Z,24.20
2022-09-12T16:52:11.384Z,24.20
2022-09-12T16:54:38.176Z,24.10
2022-09-12T16:57:06.455Z,24.10
2022-09-12T16:59:33.186Z,24.00
2022-09-12T17:02:00.270Z,23.90
2022-09-12T17:04:27.297Z,23.80
2022-09-12T17:06:54.090Z,23.70
2022-09-12T17:09:21.887Z,23.70
2022-09-12T17:11:49.708Z,23.60
2022-09-12T17:14:16.672Z,23.60
2022-09-12T17:16:51.479Z,23.50
2022-09-12T17:19:28.242Z,23.50
2022-09-12T17:21:55.886Z,23.40
2022-09-12T17:24:23.133Z,23.30
2022-09-12T17:26:50.497Z,23.20
2022-09-12T17:29:17.981Z,23.20
2022-09-12T17:31:45.311Z,23.10
2022-09-12T17:34:16.401Z,23.00
2022-09-12T17:36:44.532Z,22.90
2022-09-12T17:39:12.971Z,22.80
2022-09-12T17:41:41.687Z,22.70
2022-09-12T17:44:10.724Z,22.60
2022-09-12T17:46:38.761Z,22.50
2022-09-12T17:49:08.655Z,22.50
2022-09-12T17:51:36.227Z,22.40
2022-09-12T17:54:02.909Z,22.30
2022-09-12T17:56:31.568Z,22.20
2022-09-12T17:58:59.470Z,22.20
2022-09-12T18:01:46.338Z,22.00
2022-09-12T18:04:13.160Z,21.90
2022-09-12T18:06:40.872Z,21.90
2022-09-12T18:09:09.449Z,21.70
2022-09-12T18:11:36.620Z,21.60
2022-09-12T18:14:03.428Z,21.60
2022-09-12T18:16:31.448Z,21.50
2022-09-12T18:19:03.851Z,21.50
2022-09-12T18:21:30.677Z,21.40
2022-09-12T18:23:59.259Z,21.40
2022-09-12T18:26:27.590Z,21.40
2022-09-12T18:28:54.917Z,21.30
2022-09-12T18:31:23.933Z,21.30
2022-09-12T18:33:51.285Z,21.30
2022-09-12T18:36:19.106Z,21.20
2022-09-12T18:38:46.518Z,21.20
2022-09-12T18:41:19.310Z,21.10
2022-09-12T18:43:46.855Z,21.10
2022-09-12T18:46:18.972Z,21.00
2022-09-12T18:48:46.749Z,21.00
2022-09-12T18:51:15.901Z,20.90
2022-09-12T18:53:43.519Z,20.90
2022-09-12T18:56:12.866Z,20.90
2022-09-12T18:58:43.899Z,20.80
2022-09-12T19:01:11.913Z,20.80
2022-09-12T19:03:39.148Z,20.80
2022-09-12T19:06:11.695Z,20.70
2022-09-12T19:08:39.612Z,20.70
2022-09-12T19:11:07.818Z,20.70
2022-09-12T19:13:40.238Z,20.60
2022-09-12T19:16:10.206Z,20.60
2022-09-12T19:18:38.990Z,20.60
2022-09-12T19:21:08.161Z,20.60
2022-09-12T19:23:36.167Z,20.60
2022-09-12T19:26:05.788Z,20.60
2022-09-12T19:28:33.499Z,20.60
2022-09-12T19:31:00.542Z,20.60
2022-09-12T19:33:27.531Z,20.50
2022-09-12T19:35:54.625Z,20.50
2022-09-12T19:38:21.360Z,20.50
2022-09-12T19:40:58.644Z,20.40
2022-09-12T19:43:26.071Z,20.40
2022-09-12T19:45:53.105Z,20.40
2022-09-12T19:48:20.901Z,20.30
2022-09-12T19:50:48.355Z,20.30
2022-09-12T19:53:17.546Z,20.30
2022-09-12T19:55:45.726Z,20.20
2022-09-12T19:58:13.639Z,20.20
2022-09-12T20:00:40.486Z,20.10
2022-09-12T20:03:07.418Z,20.10
2022-09-12T20:05:34.587Z,20.10
2022-09-12T20:08:02.868Z,20.00
2022-09-12T20:10:29.722Z,20.00
2022-09-12T20:12:56.544Z,20.00
2022-09-12T20:15:23.615Z,20.00
2022-09-12T20:17:57.112Z,19.90
2022-09-12T20:20:25.974Z,19.90
2022-09-12T20:22:53.486Z,19.90
2022-09-12T20:25:20.331Z,19.80
2022-09-12T20:27:48.258Z,19.80
2022-09-12T20:30:15.736Z,19.80
2022-09-12T20:32:42.906Z,19.70
2022-09-12T20:35:10.423Z,19.70
2022-09-12T20:37:38.444Z,19.70
2022-09-12T20:40:06.085Z,19.70
2022-09-12T20:42:32.775Z,19.60
2022-09-12T20:44:59.539Z,19.70
2022-09-12T20:47:26.318Z,19.70
2022-09-12T20:49:53.164Z,19.80
2022-09-12T20:52:19.912Z,19.80
2022-09-12T20:54:46.645Z,19.80
2022-09-12T20:57:13.478Z,19.80
2022-09-12T20:59:42.518Z,19.80
2022-09-12T21:02:16.014Z,19.80
2022-09-12T21:04:42.946Z,19.80
2022-09-12T21:07:09.717Z,19.80
2022-09-12T21:09:36.446Z,19.80
2022-09-12T21:12:03.341Z,19.80
2022-09-12T21:14:30.029Z,19.80
2022-09-12T21:16:56.770Z,19.80
2022-09-12T21:19:23.531Z,19.80
2022-09-12T21:21:50.417Z,19.80
2022-09-12T21:24:17.427Z,19.80
2022-09-12T21:26:44.489Z,19.80
2022-09-12T21:29:11.464Z,19.80
2022-09-12T21:31:38.281Z,19.80
2022-09-12T21:34:05.066Z,19.70
2022-09-12T21:36:31.787Z,19.80
2022-09-12T21:38:59.537Z,19.70
2022-09-12T21:41:26.291Z,19.70
2022-09-12T21:43:53.154Z,19.60
2022-09-12T21:46:19.982Z,19.60
2022-09-12T21:48:46.847Z,19.60
2022-09-12T21:51:13.627Z,19.60
2022-09-12T21:53:40.577Z,19.60
2022-09-12T21:56:09.042Z,19.60
2022-09-12T21:58:36.695Z,19.60
2022-09-12T22:01:05.746Z,19.50
2022-09-12T22:03:32.537Z,19.50
2022-09-12T22:06:04.597Z,19.50
2022-09-12T22:08:32.734Z,19.50
2022-09-12T22:11:09.254Z,19.50
2022-09-12T22:13:43.276Z,19.50
2022-09-12T22:16:10.242Z,19.40
2022-09-12T22:18:38.262Z,19.40
2022-09-12T22:21:09.255Z,19.30
2022-09-12T22:23:54.462Z,19.30
2022-09-12T22:26:21.707Z,19.30
2022-09-12T22:28:50.340Z,19.30
2022-09-12T22:31:18.026Z,19.20
2022-09-12T22:33:45.418Z,19.20
2022-09-12T22:36:12.836Z,19.20
2022-09-12T22:38:40.288Z,19.10
2022-09-12T22:41:09.308Z,19.20
2022-09-12T22:43:37.096Z,19.20
2022-09-12T22:46:12.162Z,19.10
2022-09-12T22:48:39.036Z,19.00
2022-09-12T22:51:06.253Z,19.10
2022-09-12T22:53:34.116Z,19.00
2022-09-12T22:56:01.165Z,19.00
2022-09-12T22:58:27.935Z,19.00
2022-09-12T23:00:55.088Z,19.00
2022-09-12T23:03:21.931Z,18.90
2022-09-12T23:05:49.082Z,18.90
2022-09-12T23:08:17.848Z,18.90
2022-09-12T23:10:46.449Z,18.90
2022-09-12T23:13:14.401Z,18.90
2022-09-12T23:15:41.631Z,18.90
2022-09-12T23:18:08.625Z,18.90
2022-09-12T23:20:39.943Z,18.80
2022-09-12T23:23:06.876Z,18.80
2022-09-12T23:25:34.709Z,18.90
2022-09-12T23:28:01.945Z,18.80
2022-09-12T23:30:32.102Z,18.80
2022-09-12T23:32:58.910Z,18.90
2022-09-12T23:35:25.857Z,18.80
2022-09-12T23:37:52.904Z,18.80
2022-09-12T23:40:20.287Z,18.80
2022-09-12T23:42:47.116Z,18.80
2022-09-12T23:45:14.076Z,18.80
2022-09-12T23:47:40.753Z,18.80
2022-09-12T23:50:07.775Z,18.70
2022-09-12T23:52:34.532Z,18.70
2022-09-12T23:55:01.318Z,18.70
2022-09-12T23:57:28.527Z,18.70
2022-09-12T23:59:55.242Z,18.70
